Time;durP1;ratioP1;P1;durP2;ratioP2;P2;SDS_P1;SDS_P2;PMS_P1;PMS_P2;Temp;Humidity;BMP_temperature;BMP_pressure;BME280_temperature;BME280_humidity;BME280_pressure;Samples;Min_cycle;Max_cycle;Signal;HPM_P1;HPM_P2
2023/09/19 04:30:10;;;;;;;0.10;0.10;;;15.20;80.90;;;;;;6022435;23;20019;31
2023/09/19 04:32:38;;;;;;;0.10;0.10;;;15.30;81.10;;;;;;4836461;29;20042;-83
2023/09/19 04:35:06;;;;;;;0.10;0.10;;;15.30;81.00;;;;;;4828909;29;20032;-82
2023/09/19 04:37:32;;;;;;;0.10;0.10;;;15.30;80.80;;;;;;4842939;29;20046;-82
2023/09/19 04:39:58;;;;;;;0.00;0.00;;;15.30;80.90;;;;;;4846923;29;20018;-82
2023/09/19 04:42:25;;;;;;;0.10;0.10;;;15.30;80.80;;;;;;4845656;29;20061;-82
2023/09/19 04:44:53;;;;;;;0.10;0.10;;;15.30;80.80;;;;;;4830233;29;20037;-82
2023/09/19 04:47:19;;;;;;;0.10;0.10;;;15.30;80.80;;;;;;4846625;29;20097;-82
2023/09/19 04:49:44;;;;;;;0.10;0.10;;;15.30;80.90;;;;;;4845902;29;20561;-83
2023/09/19 04:52:10;;;;;;;0.10;0.10;;;15.30;80.90;;;;;;4846738;29;20497;-82
2023/09/19 04:54:36;;;;;;;0.10;0.10;;;15.30;80.70;;;;;;4846144;29;20078;-84
2023/09/19 04:57:02;;;;;;;0.00;0.00;;;15.40;80.80;;;;;;4844915;29;20033;-80
2023/09/19 04:59:28;;;;;;;0.10;0.10;;;15.40;80.80;;;;;;4830149;29;20033;-83
2023/09/19 05:01:54;;;;;;;0.10;0.10;;;15.40;80.50;;;;;;4843583;29;20786;-84
2023/09/19 05:04:19;;;;;;;0.00;0.00;;;15.40;80.80;;;;;;4841164;29;20397;-85
2023/09/19 05:06:45;;;;;;;0.17;0.10;;;15.40;80.60;;;;;;4846430;29;20094;-80
2023/09/19 05:09:11;;;;;;;0.03;0.03;;;15.40;80.80;;;;;;4846235;29;20030;-80
2023/09/19 05:11:38;;;;;;;0.00;0.00;;;15.40;81.00;;;;;;4845210;29;20090;-80
2023/09/19 05:14:03;;;;;;;0.08;0.08;;;15.30;80.90;;;;;;4842095;29;20026;-79
2023/09/19 05:16:33;;;;;;;0.10;0.10;;;15.30;81.00;;;;;;4846358;29;20041;-81
2023/09/19 05:19:00;;;;;;;0.10;0.10;;;15.30;81.00;;;;;;4845207;29;20033;-83
2023/09/19 05:21:28;;;;;;;0.10;0.10;;;15.20;81.10;;;;;;4843472;29;20497;-79
2023/09/19 05:23:54;;;;;;;0.08;0.08;;;15.30;81.10;;;;;;4846176;29;20037;-80
2023/09/19 05:26:20;;;;;;;0.00;0.00;;;15.30;81.00;;;;;;4828580;29;20030;-79
2023/09/19 05:28:47;;;;;;;0.00;0.00;;;15.30;80.80;;;;;;4844331;29;20038;-79
2023/09/19 05:31:14;;;;;;;0.00;0.00;;;15.30;81.00;;;;;;4845715;29;20125;-82
2023/09/19 05:33:39;;;;;;;0.00;0.00;;;15.30;81.10;;;;;;4841079;29;20022;-82
2023/09/19 05:36:05;;;;;;;0.10;0.10;;;15.30;81.10;;;;;;4846002;29;20030;-82
2023/09/19 05:38:32;;;;;;;0.05;0.05;;;15.30;81.10;;;;;;4844861;29;20045;-82
2023/09/19 05:40:58;;;;;;;0.10;0.10;;;15.20;81.10;;;;;;4844737;29;20053;-82
2023/09/19 05:43:24;;;;;;;0.00;0.00;;;15.20;81.10;;;;;;4844034;29;20045;-81
2023/09/19 05:45:52;;;;;;;0.10;0.10;;;15.20;81.10;;;;;;4828845;29;20038;-88
2023/09/19 05:48:17;;;;;;;0.00;0.00;;;15.10;81.30;;;;;;4844368;29;20034;-81
2023/09/19 05:50:43;;;;;;;0.10;0.10;;;15.10;81.40;;;;;;4829216;29;20094;-81
2023/09/19 05:53:12;;;;;;;0.10;0.10;;;15.10;81.40;;;;;;4828330;29;20030;-81
2023/09/19 05:55:38;;;;;;;0.10;0.10;;;15.20;81.60;;;;;;4829241;29;20045;-81
2023/09/19 05:58:04;;;;;;;0.10;0.10;;;15.10;81.40;;;;;;4828629;29;20038;-81
2023/09/19 06:00:31;;;;;;;0.00;0.00;;;15.10;81.30;;;;;;4828775;29;20097;-81
2023/09/19 06:02:58;;;;;;;0.10;0.10;;;15.10;81.50;;;;;;4828064;29;20124;-81
2023/09/19 06:05:26;;;;;;;0.10;0.10;;;15.20;81.50;;;;;;4843835;29;20030;-81
2023/09/19 06:07:52;;;;;;;0.10;0.10;;;15.20;81.40;;;;;;4844199;29;20029;-81
2023/09/19 06:10:20;;;;;;;0.10;0.10;;;15.20;81.40;;;;;;4844348;29;20022;-81
2023/09/19 06:12:46;;;;;;;0.10;0.10;;;15.20;81.30;;;;;;4844003;29;20049;-81
2023/09/19 06:15:18;;;;;;;0.00;0.00;;;15.30;81.20;;;;;;4845186;29;20036;-81
2023/09/19 06:17:51;;;;;;;0.00;0.00;;;15.30;81.10;;;;;;4844296;29;20516;-81
2023/09/19 06:20:17;;;;;;;0.10;0.10;;;15.30;81.10;;;;;;4843695;29;20592;-81
2023/09/19 06:22:44;;;;;;;0.10;0.10;;;15.30;81.00;;;;;;4844171;29;20137;-81
2023/09/19 06:25:12;;;;;;;0.10;0.10;;;15.30;81.20;;;;;;4841105;29;20295;-81
2023/09/19 06:27:42;;;;;;;0.10;0.10;;;15.20;81.30;;;;;;4844237;29;20037;-81
2023/09/19 06:30:09;;;;;;;0.10;0.10;;;15.20;81.30;;;;;;4843744;29;20033;-81
2023/09/19 06:32:35;;;;;;;0.10;0.10;;;15.20;81.40;;;;;;4828182;29;20042;-81
2023/09/19 06:35:01;;;;;;;0.10;0.10;;;15.20;81.70;;;;;;4844728;29;20033;-81
2023/09/19 06:37:30;;;;;;;0.00;0.00;;;15.30;81.50;;;;;;4843979;29;20030;-81
2023/09/19 06:39:56;;;;;;;0.00;0.00;;;15.30;81.50;;;;;;4844985;29;20034;-81
2023/09/19 06:42:22;;;;;;;0.10;0.10;;;15.30;81.20;;;;;;4845021;29;20057;-81
2023/09/19 06:44:49;;;;;;;0.10;0.10;;;15.30;81.50;;;;;;4844042;29;20030;-81
2023/09/19 06:47:16;;;;;;;0.00;0.00;;;15.30;81.40;;;;;;4844738;29;20045;-81
2023/09/19 06:49:43;;;;;;;0.10;0.10;;;15.30;81.40;;;;;;4842875;29;20574;-80
2023/09/19 06:52:09;;;;;;;0.10;0.10;;;15.40;81.40;;;;;;4843756;29;20053;-81
2023/09/19 06:54:35;;;;;;;0.10;0.10;;;15.30;81.30;;;;;;4828664;29;20079;-81
2023/09/19 06:57:01;;;;;;;0.10;0.10;;;15.40;81.40;;;;;;4843722;29;20798;-81
2023/09/19 06:59:27;;;;;;;0.10;0.10;;;15.50;81.20;;;;;;4844143;29;20163;-81
2023/09/19 07:01:53;;;;;;;0.10;0.10;;;15.60;81.20;;;;;;4844777;29;20034;-81
2023/09/19 07:04:22;;;;;;;0.10;0.10;;;15.80;80.90;;;;;;4843325;29;20026;-81
2023/09/19 07:06:50;;;;;;;0.10;0.10;;;15.90;80.10;;;;;;4844482;29;20485;-81
2023/09/19 07:09:17;;;;;;;0.10;0.10;;;16.10;79.90;;;;;;4844053;29;20087;-82
2023/09/19 07:11:43;;;;;;;0.10;0.10;;;16.20;79.70;;;;;;4843481;29;20030;-81
2023/09/19 07:14:11;;;;;;;0.10;0.10;;;16.40;79.60;;;;;;4838995;29;20030;-81
2023/09/19 07:16:38;;;;;;;0.10;0.10;;;16.70;78.90;;;;;;4824982;29;20034;-81
2023/09/19 07:19:04;;;;;;;0.17;0.17;;;17.10;77.70;;;;;;4846496;29;21454;-81
2023/09/19 07:21:30;;;;;;;0.30;0.30;;;18.10;75.20;;;;;;4848042;29;20034;-81
2023/09/19 07:23:56;;;;;;;0.20;0.20;;;19.20;72.90;;;;;;4848318;29;20033;-82
2023/09/19 07:26:22;;;;;;;0.10;0.10;;;20.10;70.00;;;;;;4847306;29;20044;-82
2023/09/19 07:28:47;;;;;;;0.10;0.10;;;19.60;69.10;;;;;;4848136;29;20065;-82
2023/09/19 07:31:14;;;;;;;0.10;0.10;;;20.60;67.40;;;;;;4846811;29;20498;-82
2023/09/19 07:33:40;;;;;;;0.00;0.00;;;20.20;68.00;;;;;;4846880;29;20091;-82
2023/09/19 07:36:06;;;;;;;0.10;0.10;;;19.40;68.30;;;;;;4846817;29;20550;-81
2023/09/19 07:38:35;;;;;;;0.10;0.10;;;19.10;69.70;;;;;;4831498;29;20038;-82
2023/09/19 07:41:02;;;;;;;0.10;0.10;;;18.90;70.70;;;;;;4833739;29;20041;-82
2023/09/19 07:43:28;;;;;;;0.10;0.10;;;19.10;71.00;;;;;;4846899;29;20056;-82
2023/09/19 07:45:53;;;;;;;0.20;0.20;;;20.00;68.70;;;;;;4847619;29;20030;-82
2023/09/19 07:48:19;;;;;;;0.10;0.10;;;21.50;65.70;;;;;;4847740;29;20527;-82
2023/09/19 07:50:45;;;;;;;0.00;0.00;;;21.50;64.70;;;;;;4846792;29;20089;-82
2023/09/19 07:53:13;;;;;;;0.10;0.10;;;20.80;65.90;;;;;;4845733;29;20034;-82
2023/09/19 07:55:40;;;;;;;0.10;0.10;;;20.60;67.10;;;;;;4847726;29;20026;-81
2023/09/19 07:58:07;;;;;;;0.00;0.00;;;20.20;67.90;;;;;;4846591;29;20072;-81
2023/09/19 08:00:34;;;;;;;0.15;0.10;;;19.70;68.70;;;;;;4847109;29;20045;-81
2023/09/19 08:03:00;;;;;;;0.00;0.00;;;19.20;70.10;;;;;;4830973;29;20042;-82
2023/09/19 08:05:26;;;;;;;0.10;0.10;;;18.80;71.70;;;;;;4846220;29;20082;-82
2023/09/19 08:07:53;;;;;;;0.00;0.00;;;18.50;72.80;;;;;;4847772;29;20034;-82
2023/09/19 08:10:20;;;;;;;0.00;0.00;;;18.20;73.90;;;;;;4845716;29;20030;-82
2023/09/19 08:12:47;;;;;;;0.00;0.00;;;18.10;74.30;;;;;;4846312;29;20054;-81
2023/09/19 08:15:19;;;;;;;0.00;0.00;;;18.00;74.90;;;;;;4830554;29;20064;-81
2023/09/19 08:17:45;;;;;;;0.10;0.10;;;18.00;75.30;;;;;;4845533;29;20416;-82
2023/09/19 08:20:18;;;;;;;0.10;0.10;;;18.10;75.40;;;;;;4847105;29;20108;-81
2023/09/19 08:22:49;;;;;;;0.10;0.10;;;18.30;75.20;;;;;;4846223;29;20481;-82
2023/09/19 08:25:18;;;;;;;0.10;0.10;;;18.30;75.30;;;;;;4830596;29;20045;-82
2023/09/19 08:27:49;;;;;;;0.10;0.10;;;18.30;75.50;;;;;;4847590;29;20034;-82
2023/09/19 08:30:16;;;;;;;0.00;0.00;;;18.30;75.50;;;;;;4825688;29;20027;-82
2023/09/19 08:32:42;;;;;;;0.10;0.10;;;18.30;75.70;;;;;;4827815;29;20383;-81
2023/09/19 08:35:09;;;;;;;0.10;0.10;;;18.20;76.00;;;;;;4846915;29;20026;-82
2023/09/19 08:37:35;;;;;;;0.03;0.03;;;18.30;76.50;;;;;;4846113;29;20688;-82
2023/09/19 08:40:01;;;;;;;0.13;0.10;;;18.30;76.10;;;;;;4846905;29;20030;-82
2023/09/19 08:42:27;;;;;;;0.10;0.10;;;18.50;76.40;;;;;;4845913;29;20401;-82
2023/09/19 08:44:55;;;;;;;0.10;0.10;;;18.70;75.80;;;;;;4846270;29;20120;-81
2023/09/19 08:47:26;;;;;;;0.10;0.10;;;18.90;75.40;;;;;;4830376;29;20034;-82
2023/09/19 08:49:55;;;;;;;0.00;0.00;;;18.90;74.70;;;;;;4846967;29;20033;-82
2023/09/19 08:52:26;;;;;;;0.10;0.10;;;18.90;75.10;;;;;;4845698;29;20117;-82
2023/09/19 08:54:55;;;;;;;0.10;0.10;;;18.80;75.30;;;;;;4846787;29;20109;-82
2023/09/19 08:57:22;;;;;;;0.10;0.10;;;18.80;75.90;;;;;;4842877;29;20068;-81
2023/09/19 08:59:51;;;;;;;0.10;0.10;;;18.90;76.00;;;;;;4846664;29;20113;-82
2023/09/19 09:02:21;;;;;;;0.03;0.03;;;18.90;75.70;;;;;;4846313;29;20034;-82
2023/09/19 09:04:49;;;;;;;0.10;0.10;;;18.90;76.10;;;;;;4844814;29;20034;-82
2023/09/19 09:07:18;;;;;;;0.00;0.00;;;19.00;76.00;;;;;;4845907;29;20046;-82
2023/09/19 09:09:45;;;;;;;0.10;0.10;;;19.00;75.50;;;;;;4845895;29;20108;-82
2023/09/19 09:12:15;;;;;;;0.08;0.08;;;19.10;75.60;;;;;;4846156;29;20109;-82
2023/09/19 09:14:46;;;;;;;0.10;0.10;;;19.10;75.90;;;;;;4845332;29;20117;-82
2023/09/19 09:17:12;;;;;;;0.10;0.10;;;19.30;75.70;;;;;;4845180;29;20025;-83
2023/09/19 09:19:38;;;;;;;0.10;0.10;;;19.40;75.80;;;;;;4846176;29;20435;-83
2023/09/19 09:22:10;;;;;;;0.10;0.10;;;19.50;75.20;;;;;;4844338;29;20046;-83
2023/09/19 09:24:39;;;;;;;0.10;0.10;;;19.60;75.10;;;;;;4846177;29;20018;-82
2023/09/19 09:27:08;;;;;;;0.10;0.10;;;19.80;75.10;;;;;;4845070;29;20087;-82
2023/09/19 09:29:44;;;;;;;0.10;0.10;;;19.80;74.10;;;;;;4845094;29;20081;-83
2023/09/19 09:32:28;;;;;;;0.10;0.10;;;19.80;74.00;;;;;;4844756;29;20088;-82
2023/09/19 09:34:59;;;;;;;0.10;0.10;;;19.90;73.80;;;;;;4830486;29;20033;-82
2023/09/19 09:37:28;;;;;;;0.00;0.00;;;19.80;73.40;;;;;;4844958;29;20057;-82
2023/09/19 09:42:41;;;;;;;0.10;0.10;;;19.80;72.10;;;;;;4846279;29;20042;-82
2023/09/19 09:48:03;;;;;;;0.10;0.10;;;20.20;72.20;;;;;;4825648;29;20069;-82
2023/09/19 09:53:32;;;;;;;0.03;0.03;;;20.40;71.40;;;;;;4830281;29;20042;-82
2023/09/19 09:56:05;;;;;;;0.00;0.00;;;20.50;70.80;;;;;;4844453;29;20049;-83
2023/09/19 09:58:32;;;;;;;0.10;0.10;;;20.40;69.80;;;;;;4844754;29;20116;-83
2023/09/19 10:01:01;;;;;;;0.10;0.10;;;20.50;70.00;;;;;;4844176;29;20568;-82
2023/09/19 10:03:48;;;;;;;0.10;0.10;;;20.80;71.00;;;;;;4834912;29;20033;-83
2023/09/19 10:06:33;;;;;;;0.00;0.00;;;20.80;70.80;;;;;;4844289;29;20042;-82
2023/09/19 10:11:59;;;;;;;0.10;0.10;;;21.10;69.00;;;;;;4844476;29;20055;-82
2023/09/19 10:14:31;;;;;;;0.00;0.00;;;21.10;68.00;;;;;;4845262;29;20120;-83
2023/09/19 10:17:03;;;;;;;0.10;0.10;;;21.00;68.20;;;;;;4836821;29;20030;-83
2023/09/19 10:20:04;;;;;;;0.00;0.00;;;20.90;68.10;;;;;;4837998;29;20034;-83
2023/09/19 10:22:32;;;;;;;0.10;0.10;;;20.90;68.70;;;;;;4844228;29;20027;-83
2023/09/19 10:25:00;;;;;;;0.10;0.10;;;21.10;67.80;;;;;;4839079;29;20489;-83
2023/09/19 10:27:29;;;;;;;0.10;0.10;;;21.10;67.60;;;;;;4845340;29;20076;-83
2023/09/19 10:29:57;;;;;;;0.00;0.00;;;21.20;66.90;;;;;;4844096;29;20041;-83
2023/09/19 10:32:23;;;;;;;0.10;0.10;;;21.30;67.40;;;;;;4839455;29;20633;-81
2023/09/19 10:34:49;;;;;;;0.10;0.10;;;21.40;66.70;;;;;;4842889;29;20497;-81
2023/09/19 10:37:22;;;;;;;0.08;0.08;;;21.70;65.20;;;;;;4845045;29;20163;-83
2023/09/19 10:39:49;;;;;;;0.00;0.00;;;21.70;64.10;;;;;;4844110;29;20565;-83
2023/09/19 10:42:19;;;;;;;0.00;0.00;;;21.80;64.20;;;;;;4844831;29;20049;-82
2023/09/19 10:44:53;;;;;;;0.10;0.10;;;21.70;62.60;;;;;;4827689;29;20038;-83
2023/09/19 10:47:20;;;;;;;0.10;0.10;;;21.80;62.30;;;;;;4843499;29;20063;-83
2023/09/19 10:49:46;;;;;;;0.10;0.10;;;22.00;62.70;;;;;;4841651;29;20087;-83
2023/09/19 10:52:19;;;;;;;0.10;0.10;;;22.00;62.50;;;;;;4844472;29;20034;-83
2023/09/19 10:54:52;;;;;;;0.10;0.10;;;22.10;62.40;;;;;;4843254;29;20382;-83
2023/09/19 10:57:27;;;;;;;0.10;0.10;;;22.00;61.50;;;;;;4826663;29;20038;-83
2023/09/19 11:00:26;;;;;;;0.10;0.10;;;22.30;61.50;;;;;;4826750;29;20147;-82
2023/09/19 11:03:11;;;;;;;0.10;0.10;;;22.20;60.60;;;;;;4827035;29;20034;-83
2023/09/19 11:05:40;;;;;;;0.10;0.10;;;22.10;61.40;;;;;;4843384;29;20034;-83
2023/09/19 11:08:07;;;;;;;0.10;0.10;;;22.30;61.50;;;;;;4835210;29;20126;-83
2023/09/19 11:10:49;;;;;;;0.10;0.10;;;22.40;60.80;;;;;;4843696;29;20033;-83
2023/09/19 11:13:30;;;;;;;0.10;0.10;;;22.50;60.30;;;;;;4827624;29;20099;-83
2023/09/19 11:15:59;;;;;;;0.00;0.00;;;22.50;60.00;;;;;;4842884;29;20057;-82
2023/09/19 11:18:40;;;;;;;0.10;0.10;;;22.50;60.40;;;;;;4828382;29;20042;-82
2023/09/19 11:21:32;;;;;;;0.00;0.00;;;22.30;59.20;;;;;;4844357;29;20038;-83
2023/09/19 11:24:10;;;;;;;0.10;0.10;;;22.30;60.10;;;;;;4827438;29;20026;-83
2023/09/19 11:26:48;;;;;;;0.08;0.08;;;22.30;59.40;;;;;;4844420;29;20064;-83
2023/09/19 11:29:31;;;;;;;0.10;0.10;;;22.30;59.50;;;;;;4843155;29;20042;-83
2023/09/19 11:31:59;;;;;;;0.03;0.03;;;22.50;61.10;;;;;;4844828;29;20049;-83
2023/09/19 11:34:37;;;;;;;0.10;0.10;;;22.70;61.00;;;;;;4830978;29;20550;-83
2023/09/19 11:37:15;;;;;;;0.00;0.00;;;22.70;58.90;;;;;;4844365;29;20478;-83
2023/09/19 11:40:16;;;;;;;0.00;0.00;;;22.70;57.60;;;;;;4843559;29;20042;-83
2023/09/19 11:42:45;;;;;;;0.10;0.10;;;22.50;58.80;;;;;;4844319;29;20026;-83
2023/09/19 11:45:45;;;;;;;0.03;0.03;;;22.60;58.80;;;;;;4843063;29;20117;-83
2023/09/19 11:48:18;;;;;;;0.10;0.10;;;22.70;57.70;;;;;;4826106;29;20060;-82
2023/09/19 11:50:47;;;;;;;0.00;0.00;;;22.70;57.80;;;;;;4837815;29;20041;-83
2023/09/19 11:53:13;;;;;;;0.10;0.10;;;22.80;57.90;;;;;;4828031;29;20038;-83
2023/09/19 11:55:43;;;;;;;0.08;0.08;;;23.00;58.40;;;;;;4827202;29;20030;-84
2023/09/19 11:58:09;;;;;;;0.00;0.00;;;23.20;57.90;;;;;;4844313;29;20058;-83
2023/09/19 12:00:38;;;;;;;0.03;0.03;;;23.30;56.90;;;;;;4828059;29;20034;-83
2023/09/19 12:03:10;;;;;;;0.10;0.10;;;23.50;56.20;;;;;;4827612;29;20037;-83
2023/09/19 12:05:37;;;;;;;0.00;0.00;;;23.70;55.90;;;;;;4845788;29;20485;-83
2023/09/19 12:08:10;;;;;;;0.10;0.10;;;23.60;54.60;;;;;;4834486;29;20121;-83
2023/09/19 12:10:51;;;;;;;0.00;0.00;;;23.50;55.10;;;;;;4813100;29;20022;-84
2023/09/19 12:13:20;;;;;;;0.00;0.00;;;23.20;56.00;;;;;;4847415;29;20094;-84
2023/09/19 12:15:47;;;;;;;0.00;0.00;;;23.20;56.40;;;;;;4833136;29;20117;-83
2023/09/19 12:18:31;;;;;;;0.10;0.10;;;23.10;56.20;;;;;;4829472;29;20113;-83
2023/09/19 12:20:58;;;;;;;0.00;0.00;;;23.10;56.00;;;;;;4845608;29;20033;-83
2023/09/19 12:23:25;;;;;;;0.10;0.10;;;23.00;55.70;;;;;;4847330;29;20061;-83
2023/09/19 12:25:52;;;;;;;0.00;0.00;;;23.00;56.20;;;;;;4829898;29;20026;-83
2023/09/19 12:28:18;;;;;;;0.10;0.10;;;22.90;55.80;;;;;;4847252;29;20026;-83
2023/09/19 12:30:45;;;;;;;0.10;0.10;;;22.80;55.40;;;;;;4846990;29;20056;-82
2023/09/19 12:33:25;;;;;;;0.00;0.00;;;22.90;55.80;;;;;;4829619;29;20066;-83
2023/09/19 12:35:53;;;;;;;0.10;0.10;;;22.80;56.90;;;;;;4828774;29;20023;-83
2023/09/19 12:38:28;;;;;;;0.05;0.05;;;22.80;56.40;;;;;;4827348;29;20041;-83
2023/09/19 12:40:56;;;;;;;0.03;0.03;;;22.80;55.90;;;;;;4838508;29;20041;-83
2023/09/19 12:43:23;;;;;;;0.03;0.03;;;22.80;56.50;;;;;;4841636;29;20034;-83
2023/09/19 12:45:49;;;;;;;0.03;0.03;;;22.80;57.30;;;;;;4828710;29;20038;-83
2023/09/19 12:48:34;;;;;;;0.00;0.00;;;22.80;57.10;;;;;;4827245;29;20445;-83
2023/09/19 12:51:16;;;;;;;0.00;0.00;;;22.80;58.20;;;;;;4839149;29;20030;-82
2023/09/19 12:53:44;;;;;;;0.00;0.00;;;22.90;57.70;;;;;;4845733;29;20030;-82
2023/09/19 12:56:10;;;;;;;0.00;0.00;;;22.80;57.10;;;;;;4846867;29;20056;-83
2023/09/19 12:59:13;;;;;;;0.00;0.00;;;22.80;56.80;;;;;;4843752;29;20076;-82
2023/09/19 13:01:43;;;;;;;0.00;0.00;;;22.70;57.40;;;;;;4825461;29;20157;-82
2023/09/19 13:04:29;;;;;;;0.00;0.00;;;22.70;57.90;;;;;;4844028;29;20033;-83
2023/09/19 13:07:00;;;;;;;0.00;0.00;;;22.60;57.70;;;;;;4844536;29;20046;-82
2023/09/19 13:09:34;;;;;;;0.10;0.10;;;22.60;57.90;;;;;;4844653;29;20033;-83
2023/09/19 13:12:02;;;;;;;0.00;0.00;;;22.60;57.90;;;;;;4846183;29;20026;-83
2023/09/19 13:14:37;;;;;;;0.00;0.00;;;22.70;57.70;;;;;;4843560;29;20033;-83
2023/09/19 13:17:23;;;;;;;0.10;0.10;;;22.70;57.50;;;;;;4844904;29;20439;-82
2023/09/19 13:19:54;;;;;;;0.10;0.10;;;22.80;57.60;;;;;;4841539;29;20038;-82
2023/09/19 13:22:43;;;;;;;0.10;0.10;;;22.70;57.00;;;;;;4846306;29;20075;-83
2023/09/19 13:25:14;;;;;;;0.10;0.10;;;22.70;56.30;;;;;;4829497;29;20038;-83
2023/09/19 13:27:44;;;;;;;0.00;0.00;;;22.70;56.40;;;;;;4845315;29;20034;-83
2023/09/19 13:30:11;;;;;;;0.10;0.10;;;22.70;56.70;;;;;;4845076;29;20103;-83
2023/09/19 13:32:39;;;;;;;0.08;0.08;;;22.60;56.30;;;;;;4862064;29;20504;-83
2023/09/19 13:35:05;;;;;;;0.05;0.05;;;22.60;56.90;;;;;;4864306;29;20040;-83
2023/09/19 13:37:34;;;;;;;0.10;0.10;;;22.50;56.80;;;;;;4864516;29;20401;-83
2023/09/19 13:39:59;;;;;;;0.10;0.10;;;22.50;57.60;;;;;;4863407;29;20038;-82
2023/09/19 13:42:29;;;;;;;0.03;0.03;;;22.40;57.70;;;;;;4863211;29;20212;-83
2023/09/19 13:44:55;;;;;;;0.10;0.10;;;22.50;57.90;;;;;;4862043;29;20085;-82
2023/09/19 13:47:24;;;;;;;0.10;0.10;;;22.50;58.80;;;;;;4863150;29;20537;-82
2023/09/19 13:49:52;;;;;;;0.10;0.10;;;22.60;58.70;;;;;;4862893;29;20033;-83
2023/09/19 13:52:19;;;;;;;0.10;0.10;;;22.60;58.70;;;;;;4864223;29;20029;-82
2023/09/19 13:54:44;;;;;;;0.10;0.10;;;22.60;59.20;;;;;;4863100;29;20025;-83
2023/09/19 13:57:10;;;;;;;0.10;0.10;;;22.60;59.40;;;;;;4864299;29;20860;-83
2023/09/19 13:59:36;;;;;;;0.10;0.10;;;22.70;59.30;;;;;;4864001;29;20036;-83
2023/09/19 14:02:05;;;;;;;0.10;0.10;;;22.60;59.30;;;;;;4862140;29;20033;-82
2023/09/19 14:04:31;;;;;;;0.00;0.00;;;22.70;59.20;;;;;;4862384;29;20022;-83
2023/09/19 14:06:57;;;;;;;0.00;0.00;;;22.70;59.40;;;;;;4863893;29;20113;-83
2023/09/19 14:09:24;;;;;;;0.00;0.00;;;22.70;58.90;;;;;;4862101;29;20124;-83
2023/09/19 14:11:52;;;;;;;0.10;0.10;;;22.70;59.40;;;;;;4862657;29;20037;-83
2023/09/19 14:14:18;;;;;;;0.00;0.00;;;22.80;59.50;;;;;;4862519;29;20053;-82
2023/09/19 14:16:44;;;;;;;0.10;0.10;;;23.00;58.50;;;;;;4863446;29;20029;-83
2023/09/19 14:19:10;;;;;;;0.10;0.10;;;23.10;57.90;;;;;;4863621;29;20036;-83
2023/09/19 14:21:36;;;;;;;0.10;0.10;;;23.10;56.70;;;;;;4863694;29;20119;-84
2023/09/19 14:24:02;;;;;;;0.00;0.00;;;23.20;55.70;;;;;;4846893;29;20056;-84
2023/09/19 14:26:29;;;;;;;0.10;0.10;;;23.30;55.30;;;;;;4862597;29;20041;-84
2023/09/19 14:28:55;;;;;;;0.00;0.00;;;23.20;55.80;;;;;;4862095;29;20062;-83
2023/09/19 14:31:20;;;;;;;0.00;0.00;;;23.00;56.10;;;;;;4861556;29;20050;-84
2023/09/19 14:33:52;;;;;;;0.10;0.10;;;23.00;57.20;;;;;;4861984;29;20029;-84
2023/09/19 14:36:19;;;;;;;0.10;0.10;;;23.20;57.00;;;;;;4863225;29;20045;-84
2023/09/19 14:38:44;;;;;;;0.10;0.10;;;23.10;55.80;;;;;;4861505;29;20029;-83
2023/09/19 14:41:10;;;;;;;0.10;0.10;;;23.00;56.10;;;;;;4862590;29;20048;-84
2023/09/19 14:43:35;;;;;;;0.00;0.00;;;23.00;56.80;;;;;;4862236;29;20033;-84
2023/09/19 14:46:08;;;;;;;0.05;0.05;;;23.00;57.10;;;;;;4863368;29;20034;-83
2023/09/19 14:48:34;;;;;;;0.00;0.00;;;22.90;56.50;;;;;;4862487;29;20029;-83
2023/09/19 14:51:04;;;;;;;0.00;0.00;;;22.90;56.10;;;;;;4862125;29;20034;-83
2023/09/19 14:53:32;;;;;;;0.03;0.03;;;22.70;57.00;;;;;;4861961;29;20033;-83
2023/09/19 14:56:05;;;;;;;0.08;0.08;;;22.80;57.90;;;;;;4862311;29;20033;-83
2023/09/19 14:58:31;;;;;;;0.00;0.00;;;22.70;57.20;;;;;;4863008;29;20021;-82
2023/09/19 15:01:07;;;;;;;0.00;0.00;;;22.70;57.80;;;;;;4862044;29;20117;-83
2023/09/19 15:03:35;;;;;;;0.00;0.00;;;22.50;57.30;;;;;;4863044;29;20442;-84
2023/09/19 15:06:05;;;;;;;0.00;0.00;;;22.40;57.60;;;;;;4861851;29;20029;-83
2023/09/19 15:08:34;;;;;;;0.00;0.00;;;22.40;58.10;;;;;;4846860;29;20017;-83
2023/09/19 15:11:05;;;;;;;0.00;0.00;;;22.30;57.70;;;;;;4861480;29;20082;-83
2023/09/19 15:13:31;;;;;;;0.00;0.00;;;22.30;57.80;;;;;;4862940;29;20030;-83
2023/09/19 15:16:11;;;;;;;0.10;0.10;;;22.10;58.00;;;;;;4862769;29;20056;-83
2023/09/19 15:18:38;;;;;;;0.10;0.10;;;22.20;58.60;;;;;;4843573;29;20072;-83
2023/09/19 15:21:04;;;;;;;0.00;0.00;;;22.20;58.30;;;;;;4843240;29;20045;-82
2023/09/19 15:23:34;;;;;;;0.00;0.00;;;22.30;58.50;;;;;;4845940;29;20038;-83
2023/09/19 15:26:03;;;;;;;0.00;0.00;;;22.30;57.70;;;;;;4861261;29;20041;-83
2023/09/19 15:28:32;;;;;;;0.08;0.08;;;22.50;58.10;;;;;;4863159;29;20033;-83
2023/09/19 15:31:02;;;;;;;0.00;0.00;;;22.60;57.30;;;;;;4861574;29;20049;-83
2023/09/19 15:33:30;;;;;;;0.00;0.00;;;22.50;56.80;;;;;;4862756;29;20073;-83
2023/09/19 15:36:07;;;;;;;0.00;0.00;;;22.60;56.60;;;;;;4862724;29;20041;-83
2023/09/19 15:38:57;;;;;;;0.00;0.00;;;22.50;56.70;;;;;;4863092;29;20021;-83
2023/09/19 15:41:24;;;;;;;0.00;0.00;;;22.20;57.50;;;;;;4865308;29;20102;-83
2023/09/19 15:43:49;;;;;;;0.00;0.00;;;22.20;58.20;;;;;;4865391;29;20058;-82
2023/09/19 15:46:15;;;;;;;0.08;0.08;;;22.00;58.00;;;;;;4862586;29;20041;-83
2023/09/19 15:48:42;;;;;;;0.00;0.00;;;22.00;58.40;;;;;;4855719;29;20489;-83
2023/09/19 15:51:08;;;;;;;0.03;0.03;;;21.90;59.10;;;;;;4855050;29;20033;-83
2023/09/19 15:53:45;;;;;;;0.00;0.00;;;22.00;59.20;;;;;;4857061;29;20079;-83
2023/09/19 15:56:11;;;;;;;0.00;0.00;;;21.90;58.80;;;;;;4857573;29;20090;-82
2023/09/19 15:58:39;;;;;;;0.10;0.10;;;21.90;58.40;;;;;;4857634;29;20610;-82
2023/09/19 16:01:08;;;;;;;0.00;0.00;;;22.00;58.60;;;;;;4855722;29;20044;-83
2023/09/19 16:03:36;;;;;;;0.08;0.08;;;21.90;59.40;;;;;;4864290;29;20021;-83
2023/09/19 16:06:07;;;;;;;0.00;0.00;;;21.70;58.60;;;;;;4849267;29;20637;-83
2023/09/19 16:08:34;;;;;;;0.10;0.10;;;21.70;59.20;;;;;;4863633;29;20017;-83
2023/09/19 16:11:00;;;;;;;0.00;0.00;;;21.80;59.80;;;;;;4864840;29;20026;-82
2023/09/19 16:13:28;;;;;;;0.08;0.08;;;21.80;58.60;;;;;;4865577;29;20032;-83
2023/09/19 16:15:54;;;;;;;0.03;0.03;;;21.70;59.10;;;;;;4848329;29;20402;-83
2023/09/19 16:18:19;;;;;;;0.00;0.00;;;21.80;58.80;;;;;;4848018;29;20060;-83
2023/09/19 16:20:46;;;;;;;0.10;0.10;;;21.80;58.90;;;;;;4863767;29;20052;-82
2023/09/19 16:23:12;;;;;;;0.00;0.00;;;21.80;58.50;;;;;;4863682;29;20021;-82
2023/09/19 16:25:37;;;;;;;0.00;0.00;;;21.80;59.00;;;;;;4863948;29;20045;-83
2023/09/19 16:28:04;;;;;;;0.10;0.10;;;21.70;59.40;;;;;;4865108;29;20029;-83
2023/09/19 16:30:33;;;;;;;0.00;0.00;;;21.70;59.10;;;;;;4861733;29;20389;-84
2023/09/19 16:33:00;;;;;;;0.10;0.03;;;21.70;60.00;;;;;;4844642;29;20363;-83
2023/09/19 16:35:25;;;;;;;0.00;0.00;;;21.60;59.10;;;;;;4846873;29;20045;-83
2023/09/19 16:37:51;;;;;;;0.00;0.00;;;21.60;58.90;;;;;;4830762;29;20166;-83
2023/09/19 16:40:17;;;;;;;0.00;0.00;;;21.60;59.30;;;;;;4846966;29;20082;-82
2023/09/19 16:42:43;;;;;;;0.00;0.00;;;21.50;58.90;;;;;;4846157;29;20030;-83
2023/09/19 16:45:10;;;;;;;0.10;0.10;;;21.60;59.10;;;;;;4846949;29;20045;-83
2023/09/19 16:47:36;;;;;;;0.00;0.00;;;21.60;59.50;;;;;;4844541;29;20048;-83
2023/09/19 16:50:02;;;;;;;0.00;0.00;;;21.60;58.90;;;;;;4845497;29;20592;-83
2023/09/19 16:52:27;;;;;;;0.00;0.00;;;21.60;60.00;;;;;;4829992;29;20161;-83
2023/09/19 16:54:53;;;;;;;0.00;0.00;;;21.80;59.60;;;;;;4843611;29;20037;-83
2023/09/19 16:57:20;;;;;;;0.10;0.10;;;21.80;59.40;;;;;;4830947;29;20074;-82
2023/09/19 16:59:45;;;;;;;0.10;0.10;;;21.80;59.80;;;;;;4843896;29;20033;-82
2023/09/19 17:02:11;;;;;;;0.00;0.00;;;21.70;60.30;;;;;;4846073;29;20034;-83
2023/09/19 17:04:36;;;;;;;0.00;0.00;;;21.60;60.40;;;;;;4846346;29;20037;-83
2023/09/19 17:07:02;;;;;;;0.03;0.03;;;21.50;60.80;;;;;;4841946;29;20121;-83
2023/09/19 17:09:28;;;;;;;0.00;0.00;;;21.40;60.90;;;;;;4843388;29;20026;-82
2023/09/19 17:11:54;;;;;;;0.00;0.00;;;21.30;61.40;;;;;;4842657;29;20111;-83
2023/09/19 17:14:20;;;;;;;0.00;0.00;;;21.20;61.90;;;;;;4825277;29;20126;-84
2023/09/19 17:16:45;;;;;;;0.00;0.00;;;21.10;62.10;;;;;;4842996;29;20041;-86
2023/09/19 17:19:12;;;;;;;0.08;0.08;;;21.00;62.50;;;;;;4842984;29;20034;-88
2023/09/19 17:21:38;;;;;;;0.00;0.00;;;21.00;62.80;;;;;;4834457;29;20137;-90
2023/09/19 17:24:07;;;;;;;0.10;0.10;;;20.90;63.30;;;;;;4842861;29;20129;-83
2023/09/19 17:26:33;;;;;;;0.00;0.00;;;20.90;63.10;;;;;;4842615;29;20541;-83
2023/09/19 17:28:59;;;;;;;0.00;0.00;;;20.80;63.20;;;;;;4833552;29;20065;-79
2023/09/19 17:31:26;;;;;;;0.00;0.00;;;20.80;63.50;;;;;;4843717;29;20081;-81
2023/09/19 17:33:53;;;;;;;0.00;0.00;;;20.80;63.80;;;;;;4822019;29;20481;-79
2023/09/19 17:36:19;;;;;;;0.10;0.10;;;20.80;63.40;;;;;;4843498;29;20034;-78
2023/09/19 17:38:48;;;;;;;0.00;0.00;;;20.80;63.90;;;;;;4843702;29;20034;-79